Society Hill, South Carolina
Current Conditions -  °F | °C
As of 3:15 PM on Saturday 20 Dec 2014 (Local Time) from KUDG Reporting Station
Overcast Overcast  
Wind Chill: 42°   Ceiling: 2900
Heat Index: 46°   Visibility: 10mi
Dew Point: 39°   Wind: 8mph
Humidity: 76%   Direction: 40°NE
Pressure: 30.23"   Gusts: NA
Location:  34.51°N, 79.85°W
Report Text: KUDG 202015Z AUTO 04007KT 10SM OVC029 08/04 A3023 RMK AO1
Loading
Personal Weather Stations






























Interactive Weather Map New forecast layout! Learn more

10-Day Weather Forecast

Advertisements
Track Severe Weather on mobile